Time;durP1;ratioP1;P1;durP2;ratioP2;P2;SDS_P1;SDS_P2;PMS_P1;PMS_P2;Temp;Humidity;BMP_temperature;BMP_pressure;BME280_temperature;BME280_humidity;BME280_pressure;Samples;Min_cycle;Max_cycle;Signal;HPM_P1;HPM_P2
2021/04/17 00:02:40;;;;;;;3.43;1.70;;;6.90;90.00;;;4.56;100.00;100987.72;4970085;28;47908;-58
2021/04/17 00:05:51;;;;;;;3.17;1.90;;;6.80;90.10;;;4.50;100.00;100986.31;4971645;28;48103;-59
2021/04/17 00:09:20;;;;;;;5.17;1.40;;;6.80;90.40;;;4.43;100.00;100974.44;4945211;28;48396;-58
2021/04/17 00:13:10;;;;;;;6.77;2.00;;;6.80;90.80;;;4.46;100.00;100979.50;4963750;28;48031;-58
2021/04/17 00:16:35;;;;;;;3.47;1.40;;;6.80;91.10;;;4.42;100.00;100971.88;4932265;28;43468;-59
2021/04/17 00:19:46;;;;;;;4.37;2.30;;;6.80;91.50;;;4.41;100.00;100967.53;4970005;28;45080;-58
2021/04/17 00:22:57;;;;;;;4.90;2.00;;;6.70;92.00;;;4.37;100.00;100976.63;4968656;28;53209;-57
2021/04/17 00:26:08;;;;;;;2.40;1.70;;;6.70;92.60;;;4.34;100.00;100970.56;4968797;28;50573;-59
2021/04/17 00:29:21;;;;;;;3.27;1.90;;;6.70;92.90;;;4.32;100.00;100983.09;4962059;28;48899;-59
2021/04/17 00:32:35;;;;;;;5.23;1.60;;;6.60;93.80;;;4.21;100.00;100984.72;4982278;28;50051;-58
2021/04/17 00:35:46;;;;;;;4.67;1.90;;;6.60;95.30;;;4.14;100.00;100980.78;4949376;28;45500;-56
2021/04/17 00:39:28;;;;;;;5.30;1.90;;;6.50;96.40;;;3.95;100.00;100984.66;4950998;28;41433;-58
2021/04/17 00:43:10;;;;;;;3.20;1.70;;;6.40;97.20;;;3.87;100.00;100978.13;4903825;28;43423;-59
2021/04/17 00:46:20;;;;;;;4.27;1.80;;;6.30;98.60;;;3.81;100.00;100982.03;4848533;29;48676;-57
2021/04/17 00:49:33;;;;;;;4.80;1.83;;;6.10;99.90;;;3.77;100.00;100983.19;4920746;28;44590;-56
2021/04/17 00:52:57;;;;;;;4.37;1.80;;;6.00;99.90;;;3.73;100.00;100981.66;4961499;28;45096;-58
2021/04/17 00:56:34;;;;;;;3.47;1.70;;;5.90;99.90;;;3.73;100.00;100978.16;4969743;28;40441;-56
2021/04/17 01:03:12;;;;;;;6.27;2.10;;;5.80;99.90;;;3.66;100.00;100990.09;4969823;28;41984;-57
2021/04/17 01:06:37;;;;;;;2.63;1.90;;;5.80;99.90;;;3.52;100.00;100975.94;4970272;28;45033;-57
2021/04/17 01:10:07;;;;;;;4.30;2.50;;;5.70;99.90;;;3.47;100.00;100979.81;4951419;28;46309;-58
2021/04/17 01:17:13;;;;;;;5.33;2.30;;;5.60;99.90;;;3.32;100.00;100991.38;4972605;28;46100;-56
2021/04/17 01:20:34;;;;;;;4.33;2.07;;;5.50;99.90;;;3.23;100.00;100974.25;4971434;28;52901;-56
2021/04/17 01:24:33;;;;;;;5.70;2.10;;;5.40;99.90;;;3.13;100.00;100981.91;4969236;28;49270;-58
2021/04/17 01:31:26;;;;;;;2.23;1.73;;;5.30;99.90;;;3.11;100.00;100985.56;4910731;28;43626;-59
2021/04/17 01:34:38;;;;;;;3.47;2.07;;;5.20;99.90;;;3.04;100.00;100984.25;4968003;28;39285;-60
2021/04/17 01:38:10;;;;;;;3.40;1.80;;;5.20;99.90;;;3.03;100.00;100986.06;4968887;28;46078;-62
2021/04/17 01:45:12;;;;;;;3.93;1.90;;;5.10;99.90;;;2.76;100.00;100980.63;4967093;28;46808;-61
2021/04/17 01:48:25;;;;;;;7.77;2.50;;;5.10;99.90;;;2.80;100.00;100982.16;4964508;28;44645;-60
2021/04/17 01:51:43;;;;;;;4.23;1.83;;;5.00;99.90;;;2.75;100.00;100972.78;4948960;28;50318;-63
2021/04/17 01:55:09;;;;;;;6.00;2.23;;;5.00;99.90;;;2.69;100.00;100963.47;4967073;28;44652;-63
2021/04/17 01:58:48;;;;;;;4.20;2.00;;;4.90;99.90;;;2.71;100.00;100971.28;4970112;28;56486;-63
2021/04/17 02:02:07;;;;;;;4.63;2.20;;;4.90;99.90;;;2.66;100.00;100961.00;4888357;28;39289;-63
2021/04/17 02:05:41;;;;;;;5.80;2.37;;;4.80;99.90;;;2.63;100.00;100955.03;4966947;28;41731;-61
2021/04/17 02:08:53;;;;;;;4.43;2.13;;;4.70;99.90;;;2.59;100.00;100950.88;4970629;28;40389;-62
2021/04/17 02:12:14;;;;;;;5.43;2.53;;;4.70;99.90;;;2.57;100.00;100950.13;4974273;28;39675;-62
2021/04/17 02:15:26;;;;;;;4.43;2.00;;;4.60;99.90;;;2.52;100.00;100943.31;4968389;28;48216;-62
2021/04/17 02:18:59;;;;;;;5.60;2.03;;;4.50;99.90;;;2.56;100.00;100937.84;4970933;28;45837;-61
2021/04/17 02:22:17;;;;;;;6.20;2.60;;;4.40;99.90;;;2.55;100.00;100944.06;4924002;28;43293;-62
2021/04/17 02:26:02;;;;;;;5.80;2.50;;;4.40;99.90;;;2.54;100.00;100937.94;4971643;28;44543;-62
2021/04/17 02:29:13;;;;;;;7.07;2.67;;;4.40;99.90;;;2.47;100.00;100942.72;4929761;28;48943;-61
2021/04/17 02:40:10;;;;;;;2.43;2.20;;;4.40;99.90;;;2.44;100.00;100929.72;4965572;28;57810;-60
2021/04/17 02:43:34;;;;;;;5.03;2.57;;;4.40;99.90;;;2.42;100.00;100936.88;4966482;28;43965;-60
2021/04/17 02:46:45;;;;;;;4.67;2.30;;;4.40;99.90;;;2.46;100.00;100938.41;4968468;28;41766;-61
2021/04/17 02:50:02;;;;;;;3.03;2.13;;;4.30;99.90;;;2.42;100.00;100934.22;4966300;28;43274;-60
2021/04/17 02:53:14;;;;;;;7.00;2.83;;;4.30;99.90;;;2.39;100.00;100939.69;4946612;28;47810;-61
2021/04/17 02:56:37;;;;;;;6.07;2.30;;;4.30;99.90;;;2.39;100.00;100934.41;4958960;28;51092;-59
2021/04/17 03:00:22;;;;;;;4.90;2.00;;;4.30;99.90;;;2.37;100.00;100927.50;4960970;28;50329;-61
2021/04/17 03:04:02;;;;;;;3.00;2.10;;;4.30;99.90;;;2.36;100.00;100929.31;4964422;28;48812;-61
2021/04/17 03:07:13;;;;;;;4.33;2.20;;;4.40;99.90;;;2.32;100.00;100926.94;4962678;28;54440;-60
2021/04/17 03:10:43;;;;;;;4.90;2.20;;;4.30;99.90;;;2.32;100.00;100922.53;4962432;28;54400;-59
2021/04/17 03:13:54;;;;;;;4.23;1.90;;;4.30;99.90;;;2.32;100.00;100922.53;4963670;28;49131;-60
2021/04/17 03:17:11;;;;;;;3.40;1.87;;;4.30;99.90;;;2.30;100.00;100929.69;4960394;28;53019;-61
2021/04/17 03:20:23;;;;;;;4.50;1.80;;;4.30;99.90;;;2.30;100.00;100920.91;4965696;28;46196;-60
2021/04/17 03:23:34;;;;;;;2.90;1.97;;;4.30;99.90;;;2.35;100.00;100924.13;4967108;28;55969;-60
2021/04/17 03:30:12;;;;;;;4.33;2.27;;;4.30;99.90;;;2.31;100.00;100922.59;4966842;28;51288;-60
2021/04/17 03:33:24;;;;;;;3.67;2.20;;;4.30;99.90;;;2.34;100.00;100922.44;4966230;28;51390;-59
2021/04/17 03:36:44;;;;;;;3.97;2.20;;;4.30;99.90;;;2.29;100.00;100924.47;4969672;28;44667;-60
2021/04/17 03:40:06;;;;;;;4.73;1.73;;;4.30;99.90;;;2.27;100.00;100918.44;4970208;28;49664;-61
2021/04/17 03:43:19;;;;;;;4.73;2.10;;;4.30;99.90;;;2.26;100.00;100924.66;4967264;28;55106;-60
2021/04/17 03:46:30;;;;;;;4.70;2.20;;;4.30;99.90;;;2.24;100.00;100922.09;4969243;28;49166;-60
2021/04/17 03:53:20;;;;;;;2.97;1.70;;;4.30;99.90;;;2.30;100.00;100926.19;4941538;28;54606;-61
2021/04/17 03:56:32;;;;;;;4.23;1.90;;;4.30;99.90;;;2.32;100.00;100926.94;4962548;28;50851;-61
2021/04/17 03:59:59;;;;;;;25.80;4.07;;;4.30;99.90;;;2.37;100.00;100925.72;4963031;28;50437;-58
2021/04/17 04:03:10;;;;;;;2.47;2.00;;;4.30;99.90;;;2.24;100.00;100934.44;4966056;28;55151;-60
2021/04/17 04:06:33;;;;;;;3.63;1.90;;;4.30;99.90;;;2.27;100.00;100931.63;4941936;28;53337;-59
2021/04/17 04:10:02;;;;;;;4.30;2.17;;;4.30;99.90;;;2.28;100.00;100930.69;4942502;28;51875;-60
2021/04/17 04:13:13;;;;;;;3.03;1.73;;;4.30;99.90;;;2.41;100.00;100927.25;4958416;28;56678;-59
2021/04/17 04:16:31;;;;;;;4.90;1.90;;;4.30;99.90;;;2.33;100.00;100918.94;4966952;28;51833;-60
2021/04/17 04:19:42;;;;;;;3.83;2.13;;;4.30;99.90;;;2.39;100.00;100931.78;4963867;28;52767;-59
2021/04/17 04:23:14;;;;;;;5.03;1.90;;;4.30;99.90;;;2.39;100.00;100931.78;4963172;28;41279;-58
2021/04/17 04:26:25;;;;;;;2.00;1.77;;;4.30;99.90;;;2.37;100.00;100932.78;4967452;28;48367;-59
2021/04/17 04:29:37;;;;;;;4.30;1.80;;;4.30;99.90;;;2.48;100.00;100931.22;4967147;28;48944;-60
2021/04/17 04:32:49;;;;;;;5.87;1.70;;;4.30;99.90;;;2.40;100.00;100932.63;4966294;28;47327;-61
2021/04/17 04:36:15;;;;;;;2.80;1.73;;;4.30;99.90;;;2.40;100.00;100930.81;4967498;28;49413;-61
2021/04/17 04:39:32;;;;;;;5.20;1.93;;;4.40;99.90;;;2.44;100.00;100928.88;4965987;28;49037;-60
2021/04/17 04:42:43;;;;;;;2.10;1.60;;;4.40;99.90;;;2.39;100.00;100928.28;4967076;28;51461;-61
2021/04/17 04:49:15;;;;;;;8.10;2.13;;;4.40;99.90;;;2.60;100.00;100919.06;4947901;28;44986;-61
2021/04/17 04:52:32;;;;;;;4.97;2.03;;;4.40;99.90;;;2.51;100.00;100916.97;4956971;28;43098;-59
2021/04/17 04:55:43;;;;;;;5.97;1.97;;;4.40;99.90;;;2.46;100.00;100919.91;4965907;28;47667;-61
2021/04/17 04:58:55;;;;;;;3.30;2.03;;;4.40;99.90;;;2.45;100.00;100922.66;4967862;28;44464;-61
2021/04/17 05:02:19;;;;;;;2.53;1.90;;;4.40;99.90;;;2.46;100.00;100929.63;4966901;28;45328;-60
2021/04/17 05:05:31;;;;;;;5.23;2.10;;;4.40;99.90;;;2.58;100.00;100925.41;4965963;28;51115;-61
2021/04/17 05:08:55;;;;;;;4.57;2.00;;;4.50;99.90;;;2.45;100.00;100917.38;4968226;28;47736;-61
2021/04/17 05:12:06;;;;;;;3.23;1.73;;;4.50;99.90;;;2.48;100.00;100917.16;4962193;28;46453;-60
2021/04/17 05:16:00;;;;;;;1.93;1.50;;;4.50;99.90;;;2.52;100.00;100929.25;4965068;28;52380;-61
2021/04/17 05:19:22;;;;;;;3.40;1.60;;;4.50;99.90;;;2.56;100.00;100924.66;4958814;28;49388;-61
2021/04/17 05:29:59;;;;;;;6.50;2.23;;;4.60;99.90;;;2.68;100.00;100916.84;4962872;28;46218;-60
2021/04/17 05:33:22;;;;;;;5.40;1.97;;;4.60;99.90;;;2.67;100.00;100911.63;4958440;28;48670;-60
2021/04/17 05:36:35;;;;;;;3.00;2.10;;;4.60;99.90;;;2.72;100.00;100917.50;4961408;28;45172;-61
2021/04/17 05:39:58;;;;;;;3.90;1.90;;;4.70;99.90;;;2.69;100.00;100918.53;4956080;28;57109;-61
2021/04/17 05:43:22;;;;;;;2.63;2.07;;;4.70;99.90;;;2.78;100.00;100923.25;4955971;28;50216;-62
2021/04/17 05:46:33;;;;;;;3.20;1.80;;;4.70;99.90;;;2.71;100.00;100915.81;4959373;28;51990;-62
2021/04/17 05:49:50;;;;;;;2.43;1.90;;;4.80;99.90;;;2.75;100.00;100912.00;4960852;28;51750;-60
2021/04/17 05:53:01;;;;;;;3.03;2.00;;;4.80;99.90;;;2.80;100.00;100904.66;4962869;28;47783;-62
2021/04/17 06:00:26;;;;;;;2.97;1.80;;;4.90;99.90;;;2.91;100.00;100904.84;4957612;28;49436;-60
2021/04/17 06:07:18;;;;;;;4.40;1.80;;;5.00;99.90;;;2.93;100.00;100899.47;4953447;28;45383;-62
2021/04/17 06:14:39;;;;;;;4.30;1.90;;;5.00;99.90;;;2.99;100.00;100878.78;4961792;28;43698;-60
2021/04/17 06:17:51;;;;;;;3.63;1.90;;;5.00;99.90;;;2.98;100.00;100878.88;4898939;28;48274;-60
2021/04/17 06:21:10;;;;;;;3.67;2.10;;;5.00;99.90;;;3.10;100.00;100880.75;4960875;28;49400;-61
2021/04/17 06:24:21;;;;;;;5.80;2.57;;;5.00;99.90;;;3.15;100.00;100883.97;4960465;28;51956;-61
2021/04/17 06:31:01;;;;;;;4.83;2.50;;;5.10;99.90;;;3.35;100.00;100888.84;4958660;28;46877;-61
2021/04/17 06:34:30;;;;;;;4.83;2.67;;;5.10;99.90;;;3.56;100.00;100884.00;4951258;28;48723;-60
2021/04/17 06:37:47;;;;;;;10.03;3.00;;;5.30;99.90;;;3.61;100.00;100893.31;4960105;28;54298;-59
2021/04/17 06:41:11;;;;;;;5.87;2.77;;;5.40;99.90;;;3.68;100.00;100890.28;4958524;28;52283;-60
2021/04/17 06:44:40;;;;;;;6.90;3.33;;;5.60;99.90;;;3.70;100.00;100886.59;4955758;28;50578;-60
2021/04/17 06:51:22;;;;;;;4.90;3.40;;;5.90;99.90;;;3.97;100.00;100887.41;4963287;28;44995;-59
2021/04/17 06:54:36;;;;;;;4.07;2.57;;;6.10;99.90;;;4.11;100.00;100899.75;4962232;28;48240;-59
2021/04/17 06:57:59;;;;;;;4.87;3.00;;;6.10;99.90;;;4.05;100.00;100894.00;4964963;28;47135;-58
2021/04/17 07:01:12;;;;;;;4.13;2.97;;;6.30;99.90;;;4.15;100.00;100895.09;4966975;28;52827;-60
2021/04/17 07:07:59;;;;;;;10.53;5.13;;;6.40;99.90;;;4.54;100.00;100888.91;4966805;28;40687;-58
2021/04/17 07:11:11;;;;;;;11.03;4.57;;;6.50;99.90;;;4.43;100.00;100886.16;4966083;28;46030;-57
2021/04/17 07:14:59;;;;;;;8.77;3.60;;;6.70;99.90;;;4.40;100.00;100886.34;4966878;28;45993;-59
2021/04/17 07:18:10;;;;;;;4.53;3.07;;;6.80;99.90;;;4.63;100.00;100883.81;4895849;28;44703;-59
2021/04/17 07:25:02;;;;;;;8.23;3.67;;;7.00;99.90;;;4.42;100.00;100887.09;4960467;28;45395;-59
2021/04/17 07:28:19;;;;;;;4.43;2.60;;;7.10;99.90;;;4.36;100.00;100892.78;4968653;28;41385;-58
2021/04/17 07:32:01;;;;;;;6.30;2.57;;;7.10;99.90;;;4.39;100.00;100893.44;4969550;28;46631;-58
2021/04/17 07:35:31;;;;;;;4.47;2.10;;;7.10;99.90;;;4.58;100.00;100883.28;4970561;28;43888;-59
2021/04/17 07:39:06;;;;;;;4.13;2.47;;;7.10;99.90;;;4.76;100.00;100888.28;4964831;28;40739;-59
2021/04/17 07:42:25;;;;;;;4.87;2.27;;;7.10;99.90;;;4.88;100.00;100880.31;4978592;28;42908;-56
2021/04/17 07:45:47;;;;;;;7.63;3.73;;;7.20;99.90;;;5.13;100.00;100881.22;4966629;28;50893;-59
2021/04/17 07:48:58;;;;;;;6.07;2.67;;;7.30;99.90;;;5.11;100.00;100883.13;4968643;28;46436;-58
2021/04/17 07:56:05;;;;;;;4.23;2.40;;;7.60;99.90;;;5.32;100.00;100874.50;4959999;28;42019;-57
2021/04/17 07:59:28;;;;;;;4.50;2.10;;;7.70;99.90;;;5.48;100.00;100884.00;4967011;28;46461;-59
2021/04/17 08:02:41;;;;;;;4.87;2.10;;;7.90;99.90;;;5.48;100.00;100881.34;4962253;28;54385;-57
2021/04/17 08:05:53;;;;;;;5.63;2.60;;;8.00;99.90;;;5.44;100.00;100882.56;4968334;28;42541;-58
2021/04/17 08:09:17;;;;;;;4.80;2.30;;;8.10;99.90;;;5.11;100.00;100881.34;4970392;28;39294;-59
2021/04/17 08:12:30;;;;;;;2.47;1.60;;;8.20;99.90;;;5.24;100.00;100884.81;4965636;28;43609;-59
2021/04/17 08:15:43;;;;;;;7.30;2.93;;;8.20;99.90;;;5.35;100.00;100879.59;4967127;28;42269;-59
2021/04/17 08:18:55;;;;;;;6.20;2.27;;;8.10;99.90;;;5.25;100.00;100886.50;4969759;28;41103;-59
2021/04/17 08:25:42;;;;;;;2.73;1.77;;;8.20;99.90;;;5.47;100.00;100880.50;4967571;28;53808;-58
2021/04/17 08:28:58;;;;;;;3.67;2.23;;;8.20;99.90;;;5.66;100.00;100878.22;4965142;28;45568;-55
2021/04/17 08:32:12;;;;;;;2.97;2.03;;;8.30;99.90;;;5.58;100.00;100874.41;4965149;28;44948;-58
2021/04/17 08:35:38;;;;;;;5.67;1.90;;;8.40;99.90;;;5.83;100.00;100879.63;4960802;28;42545;-57
2021/04/17 08:39:01;;;;;;;5.30;2.10;;;8.40;99.90;;;5.91;100.00;100876.44;4965662;28;43041;-58
2021/04/17 08:42:13;;;;;;;4.30;1.73;;;8.50;99.90;;;6.00;100.00;100870.44;4968378;28;41677;-58
2021/04/17 08:45:36;;;;;;;4.23;2.00;;;8.60;99.90;;;5.89;100.00;100870.41;4970332;28;42204;-57
2021/04/17 08:49:10;;;;;;;2.87;2.13;;;8.70;99.90;;;6.00;100.00;100867.78;4969673;28;38568;-58
2021/04/17 08:52:40;;;;;;;2.50;1.90;;;8.80;99.90;;;6.21;100.00;100862.66;4969293;28;43550;-57
2021/04/17 08:56:09;;;;;;;3.50;2.20;;;8.90;99.90;;;6.08;100.00;100862.72;4959554;28;44379;-59
2021/04/17 08:59:41;;;;;;;2.93;1.93;;;9.00;99.90;;;5.71;100.00;100869.91;4971073;28;37349;-58
2021/04/17 09:03:08;;;;;;;3.90;1.97;;;9.00;99.90;;;6.08;100.00;100860.06;4960713;28;44155;-59
2021/04/17 09:06:40;;;;;;;3.77;2.07;;;9.00;99.90;;;6.15;100.00;100857.81;4968649;28;40313;-57
2021/04/17 09:10:16;;;;;;;2.43;1.73;;;9.00;99.90;;;6.36;100.00;100872.97;4982347;28;47147;-58
2021/04/17 09:13:51;;;;;;;4.53;2.43;;;9.10;99.90;;;6.45;100.00;100872.25;4967422;28;39526;-56
2021/04/17 09:17:12;;;;;;;4.10;3.00;;;9.20;99.90;;;6.63;100.00;100866.50;4946213;28;46634;-58
2021/04/17 09:24:11;;;;;;;3.43;2.43;;;9.50;99.90;;;6.66;100.00;100875.09;4967990;28;34816;-59
2021/04/17 09:27:29;;;;;;;4.40;2.50;;;9.60;99.10;;;6.76;100.00;100880.53;4969688;28;39830;-58
2021/04/17 09:30:41;;;;;;;4.73;3.13;;;9.70;98.60;;;6.66;100.00;100885.75;4972355;28;33726;-58
2021/04/17 09:37:37;;;;;;;5.03;2.30;;;9.80;97.00;;;6.65;100.00;100867.22;4977080;28;30381;-57
2021/04/17 09:40:57;;;;;;;7.00;2.37;;;9.70;96.20;;;6.61;100.00;100865.78;4993945;28;28005;-59
2021/04/17 09:44:12;;;;;;;3.73;2.50;;;9.70;96.00;;;6.64;100.00;100862.88;4976492;28;30930;-59
2021/04/17 09:47:38;;;;;;;5.93;2.40;;;9.70;94.90;;;6.94;100.00;100867.59;4977706;28;29222;-58
2021/04/17 09:50:50;;;;;;;5.57;2.97;;;9.80;94.80;;;6.93;100.00;100861.44;4978093;28;25288;-58
2021/04/17 09:54:03;;;;;;;8.63;2.87;;;9.90;94.60;;;7.06;100.00;100861.31;4979353;28;24049;-58
2021/04/17 09:57:16;;;;;;;5.53;2.50;;;10.00;94.50;;;6.84;100.00;100857.69;4994944;28;28463;-59
2021/04/17 10:00:33;;;;;;;3.47;2.30;;;10.10;94.10;;;6.79;100.00;100867.84;4980023;28;27378;-59
2021/04/17 10:07:29;;;;;;;3.80;2.50;;;10.20;92.80;;;7.12;100.00;100860.84;4980418;28;20533;-53
2021/04/17 10:11:01;;;;;;;4.87;2.37;;;10.30;92.50;;;7.26;100.00;100857.91;4981032;28;22334;-57
2021/04/17 10:21:22;;;;;;;5.37;3.33;;;10.50;92.50;;;7.58;100.00;100856.16;4963507;28;20238;-59
2021/04/17 10:25:00;;;;;;;7.47;3.03;;;10.70;91.70;;;7.56;100.00;100852.75;4977931;28;28432;-58
2021/04/17 10:28:18;;;;;;;4.47;3.40;;;10.80;91.40;;;7.49;100.00;100851.59;4980310;28;29752;-58
2021/04/17 10:31:41;;;;;;;5.23;3.40;;;11.00;90.90;;;7.24;100.00;100853.69;4980337;28;26550;-59
2021/04/17 10:34:54;;;;;;;4.33;3.03;;;11.00;90.20;;;7.38;100.00;100859.59;4997552;28;23376;-59
2021/04/17 10:42:10;;;;;;;4.43;3.33;;;11.10;89.00;;;7.42;100.00;100846.84;4978377;28;28600;-59
2021/04/17 10:45:23;;;;;;;6.33;3.37;;;11.20;88.00;;;7.68;100.00;100847.41;4913982;28;23180;-58
2021/04/17 10:52:04;;;;;;;4.67;3.00;;;11.40;86.70;;;8.05;100.00;100835.38;4981927;28;25286;-57
2021/04/17 10:55:21;;;;;;;6.47;3.50;;;11.50;86.10;;;7.90;100.00;100839.34;4984983;28;24718;-56
2021/04/17 10:58:48;;;;;;;8.87;4.73;;;11.60;85.80;;;7.67;100.00;100835.06;4985817;28;20316;-59
2021/04/17 11:02:00;;;;;;;5.07;3.60;;;11.70;84.90;;;8.06;100.00;100841.56;4985191;28;20458;-58
2021/04/17 11:05:23;;;;;;;6.37;3.33;;;11.80;83.60;;;7.98;100.00;100842.22;4985968;28;20537;-58
2021/04/17 11:08:39;;;;;;;5.20;3.37;;;11.80;82.60;;;7.60;100.00;100837.38;4987174;28;20452;-58
2021/04/17 11:11:56;;;;;;;7.57;3.33;;;11.80;80.50;;;7.96;100.00;100838.81;4987953;28;20258;-58
2021/04/17 11:15:14;;;;;;;6.73;3.63;;;11.70;81.00;;;8.14;100.00;100841.78;4986600;28;20226;-59
2021/04/17 11:18:51;;;;;;;4.23;2.87;;;11.80;81.40;;;8.60;100.00;100833.41;4988546;28;20642;-58
2021/04/17 11:22:09;;;;;;;5.07;3.07;;;12.00;81.40;;;8.41;100.00;100822.59;4915500;28;20563;-58
2021/04/17 11:25:27;;;;;;;4.90;2.80;;;12.20;79.30;;;8.47;100.00;100830.09;4914978;28;20611;-57
2021/04/17 11:31:56;;;;;;;3.73;2.90;;;12.70;75.80;;;8.56;100.00;100827.47;4982174;28;20728;-58
2021/04/17 11:35:09;;;;;;;5.23;2.93;;;13.00;74.40;;;8.95;100.00;100827.66;4988223;28;20230;-59
2021/04/17 11:41:59;;;;;;;4.37;2.47;;;13.20;73.60;;;8.63;100.00;100819.81;4985309;28;20243;-58
2021/04/17 11:45:10;;;;;;;7.00;3.30;;;13.20;70.80;;;8.93;100.00;100818.94;4985572;28;20671;-58
2021/04/17 11:48:22;;;;;;;6.60;3.70;;;13.30;71.00;;;8.82;100.00;100824.38;4987735;28;20330;-57
2021/04/17 11:51:44;;;;;;;5.00;3.00;;;13.40;70.10;;;8.57;100.00;100818.50;4986705;28;20714;-57
2021/04/17 11:54:57;;;;;;;6.10;3.40;;;13.80;68.70;;;8.66;100.00;100811.50;4987603;28;20535;-58
2021/04/17 12:02:02;;;;;;;6.03;3.10;;;14.50;66.50;;;10.24;100.00;100818.59;4913102;28;20249;-58
2021/04/17 12:05:14;;;;;;;5.13;2.90;;;14.90;65.70;;;9.97;100.00;100808.59;4939477;28;20344;-58
2021/04/17 12:08:25;;;;;;;4.07;2.78;;;15.30;63.70;;;9.89;100.00;100805.75;4987387;28;20233;-58
2021/04/17 12:11:37;;;;;;;3.67;3.00;;;15.50;61.70;;;9.40;100.00;100812.03;4986837;28;20242;-58
2021/04/17 12:15:09;;;;;;;5.57;3.10;;;15.50;59.40;;;9.71;100.00;100812.81;4987384;28;20274;-57
2021/04/17 12:18:20;;;;;;;5.10;2.87;;;15.60;59.70;;;9.28;100.00;100803.31;4982659;28;20527;-58
2021/04/17 12:21:32;;;;;;;3.85;2.70;;;15.60;59.10;;;9.88;100.00;100812.13;4986872;28;20274;-58
2021/04/17 12:24:43;;;;;;;3.83;3.00;;;15.80;58.40;;;10.37;100.00;100802.25;4986904;28;20738;-58
2021/04/17 12:27:55;;;;;;;4.60;3.13;;;16.00;58.60;;;9.59;100.00;100814.75;4986667;28;20791;-58
2021/04/17 12:31:07;;;;;;;6.45;3.30;;;16.40;57.30;;;10.09;100.00;100803.94;4986397;28;20426;-58
2021/04/17 12:34:18;;;;;;;5.75;3.17;;;16.60;56.70;;;10.49;100.00;100802.91;4987805;28;20223;-58
2021/04/17 12:37:29;;;;;;;6.35;3.55;;;16.70;56.30;;;10.23;100.00;100792.84;4986915;28;20561;-58
2021/04/17 12:40:41;;;;;;;5.13;3.72;;;16.90;56.10;;;10.60;100.00;100792.88;4986942;28;20696;-58
2021/04/17 12:43:53;;;;;;;5.82;3.47;;;17.10;55.00;;;9.94;100.00;100790.16;4999214;28;20259;-59
2021/04/17 12:47:05;;;;;;;7.90;4.07;;;17.20;53.60;;;10.59;100.00;100796.53;4986936;28;20766;-59
2021/04/17 12:50:17;;;;;;;6.05;3.10;;;17.20;53.90;;;10.35;100.00;100788.16;4986966;28;20491;-58
2021/04/17 12:53:28;;;;;;;5.32;3.38;;;17.10;53.60;;;10.69;100.00;100781.28;4986114;28;20651;-58
2021/04/17 12:56:39;;;;;;;6.53;3.40;;;16.90;54.00;;;10.73;100.00;100787.19;4987558;28;20242;-59
2021/04/17 12:59:52;;;;;;;6.00;3.22;;;16.80;54.30;;;10.44;100.00;100787.28;4987229;28;20409;-59
2021/04/17 13:03:03;;;;;;;4.65;3.35;;;16.60;54.40;;;10.37;100.00;100779.00;4986067;28;20227;-59
2021/04/17 13:06:14;;;;;;;5.30;3.05;;;16.40;54.90;;;9.90;100.00;100786.06;4986964;28;20222;-59
2021/04/17 13:09:25;;;;;;;6.97;3.42;;;16.20;55.10;;;10.05;100.00;100792.66;4987207;28;20223;-58
2021/04/17 13:12:37;;;;;;;7.50;3.60;;;16.00;55.20;;;10.23;100.00;100792.84;4986675;28;21074;-58
2021/04/17 13:15:50;;;;;;;4.47;2.95;;;15.80;56.10;;;10.21;100.00;100785.94;4986254;28;20417;-57
2021/04/17 13:22:26;;;;;;;4.43;3.03;;;15.70;55.90;;;9.76;100.00;100783.00;5000288;28;20449;-57
2021/04/17 13:25:38;;;;;;;3.63;3.22;;;15.60;55.70;;;9.91;100.00;100784.22;4985802;28;20696;-57
2021/04/17 13:28:50;;;;;;;3.95;3.10;;;15.40;56.40;;;10.16;100.00;100786.31;4983908;28;20481;-57
2021/04/17 13:32:10;;;;;;;5.07;3.03;;;15.20;57.10;;;10.05;100.00;100779.31;4979663;28;20442;-57
2021/04/17 13:35:22;;;;;;;4.40;2.92;;;15.10;57.50;;;10.29;100.00;100781.53;4985679;28;20463;-58
2021/04/17 13:38:33;;;;;;;6.03;3.90;;;15.00;58.00;;;9.76;100.00;100783.84;4986367;28;20371;-57
2021/04/17 13:41:44;;;;;;;6.80;3.57;;;14.90;58.00;;;9.76;100.00;100783.84;4984508;28;20456;-59
2021/04/17 13:44:55;;;;;;;6.07;3.23;;;14.70;57.70;;;9.36;100.00;100779.44;4986074;28;20771;-58
2021/04/17 13:48:08;;;;;;;5.17;3.30;;;14.40;58.30;;;10.05;100.00;100781.97;4986256;28;20269;-59
2021/04/17 13:51:19;;;;;;;5.72;3.45;;;14.30;59.20;;;10.13;100.00;100773.25;4985061;28;20528;-58
2021/04/17 13:54:30;;;;;;;4.27;3.00;;;14.30;59.40;;;9.87;100.00;100773.00;4985897;28;20576;-57
2021/04/17 13:57:41;;;;;;;4.70;2.97;;;14.30;59.50;;;9.70;100.00;100769.19;4979487;28;20250;-59
2021/04/17 14:00:52;;;;;;;6.63;3.20;;;14.40;60.00;;;9.71;100.00;100770.91;4985398;28;20231;-57
2021/04/17 14:04:05;;;;;;;4.30;2.60;;;14.40;59.70;;;9.98;100.00;100767.50;5000203;28;20495;-59
2021/04/17 14:07:16;;;;;;;5.07;3.13;;;14.30;60.50;;;10.10;100.00;100768.19;4984188;28;20595;-57
2021/04/17 14:10:28;;;;;;;7.27;3.50;;;14.30;60.50;;;9.53;100.00;100774.38;4999918;28;20460;-57
2021/04/17 14:13:39;;;;;;;5.87;2.83;;;14.30;60.30;;;9.81;100.00;100768.22;4985273;28;20532;-58
2021/04/17 14:16:59;;;;;;;4.50;2.80;;;14.30;60.50;;;10.05;100.00;100765.94;4985214;28;20485;-58
2021/04/17 14:20:11;;;;;;;5.13;3.37;;;14.30;61.40;;;10.18;100.00;100773.69;4985733;28;20293;-58
2021/04/17 14:23:23;;;;;;;5.50;3.03;;;14.30;61.80;;;10.31;100.00;100770.69;4985519;28;20787;-58
2021/04/17 14:26:34;;;;;;;5.90;3.03;;;14.40;62.20;;;10.09;100.00;100770.03;4985579;28;20325;-58
2021/04/17 14:30:10;;;;;;;6.37;3.73;;;14.30;62.60;;;9.90;100.00;100770.03;4979127;28;20551;-57
2021/04/17 14:33:22;;;;;;;8.80;6.20;;;14.30;62.90;;;9.82;100.00;100777.06;4979669;28;20950;-58
